Time;durP1;ratioP1;P1;durP2;ratioP2;P2;SDS_P1;SDS_P2;PMS_P1;PMS_P2;Temp;Humidity;BMP_temperature;BMP_pressure;BME280_temperature;BME280_humidity;BME280_pressure;Samples;Min_cycle;Max_cycle;Signal;HPM_P1;HPM_P2
2021/10/22 00:00:12;;;;;;;2.72;0.93;;;7.40;92.90;;;;;;2073581;28;20046;-93
2021/10/22 00:01:12;;;;;;;3.90;0.80;;;7.30;92.90;;;;;;2081782;28;20033;-92
2021/10/22 00:02:13;;;;;;;2.38;0.73;;;7.30;92.90;;;;;;2073104;28;20042;-93
2021/10/22 00:03:14;;;;;;;3.20;0.70;;;7.40;93.00;;;;;;2057387;29;20042;-93
2021/10/22 00:04:15;;;;;;;5.00;1.20;;;7.30;92.90;;;;;;2057428;28;20035;-93
2021/10/22 00:05:15;;;;;;;2.53;0.65;;;7.40;93.00;;;;;;2058498;28;20170;-93
2021/10/22 00:06:16;;;;;;;5.28;0.70;;;7.30;93.00;;;;;;2042147;29;20090;-93
2021/10/22 00:07:17;;;;;;;3.35;0.80;;;7.40;93.00;;;;;;2049670;28;20486;-93
2021/10/22 00:08:17;;;;;;;4.07;0.70;;;7.30;93.00;;;;;;2049665;28;20059;-93
2021/10/22 00:09:18;;;;;;;3.38;0.73;;;7.30;93.00;;;;;;2062607;28;20046;-93
2021/10/22 00:10:19;;;;;;;2.88;0.65;;;7.30;93.00;;;;;;2065598;28;20039;-92
2021/10/22 00:11:20;;;;;;;4.07;0.70;;;7.30;93.00;;;;;;2073983;28;20068;-93
2021/10/22 00:12:20;;;;;;;4.38;0.70;;;7.40;93.00;;;;;;2065667;28;20022;-92
2021/10/22 00:13:21;;;;;;;2.35;0.60;;;7.30;93.00;;;;;;2065849;28;20042;-92
2021/10/22 00:14:22;;;;;;;2.88;0.60;;;7.30;92.90;;;;;;2049678;28;20031;-92
2021/10/22 00:15:23;;;;;;;3.03;0.77;;;7.40;93.00;;;;;;2057658;28;20047;-92
2021/10/22 00:16:25;;;;;;;2.58;0.80;;;7.40;93.00;;;;;;2057570;28;20146;-92
2021/10/22 00:17:25;;;;;;;2.45;0.65;;;7.40;92.90;;;;;;2058055;28;20405;-93
2021/10/22 00:18:26;;;;;;;3.40;0.80;;;7.40;92.90;;;;;;2066549;28;20053;-92
2021/10/22 00:19:27;;;;;;;2.83;0.65;;;7.40;92.90;;;;;;2062616;28;20066;-93
2021/10/22 00:20:27;;;;;;;2.72;0.60;;;7.40;92.90;;;;;;2064933;28;20031;-93
2021/10/22 00:21:28;;;;;;;3.83;0.60;;;7.40;92.90;;;;;;2064762;28;20039;-92
2021/10/22 00:22:29;;;;;;;3.22;0.80;;;7.40;92.90;;;;;;2065255;28;20133;-93
2021/10/22 00:23:30;;;;;;;4.13;0.93;;;7.40;92.90;;;;;;2065415;28;20038;-92
2021/10/22 00:24:31;;;;;;;2.25;0.60;;;7.40;92.90;;;;;;2064766;28;20070;-93
2021/10/22 00:25:32;;;;;;;4.05;0.90;;;7.40;92.90;;;;;;2073206;28;20102;-92
2021/10/22 00:26:33;;;;;;;2.88;0.80;;;7.40;92.90;;;;;;2073624;28;20042;-92
2021/10/22 00:27:34;;;;;;;4.07;0.70;;;7.30;92.80;;;;;;2057840;28;20034;-92
2021/10/22 00:28:34;;;;;;;2.80;0.70;;;7.40;92.90;;;;;;2057397;28;20062;-92
2021/10/22 00:29:35;;;;;;;2.58;0.70;;;7.30;92.80;;;;;;2049677;28;20095;-92
2021/10/22 00:30:36;;;;;;;3.40;0.70;;;7.40;92.80;;;;;;2057596;28;20089;-93
2021/10/22 00:31:36;;;;;;;3.10;1.20;;;7.40;92.80;;;;;;2049747;28;20038;-92
2021/10/22 00:32:37;;;;;;;1.77;0.63;;;7.30;92.80;;;;;;2057559;28;20077;-91
2021/10/22 00:33:38;;;;;;;2.70;0.63;;;7.30;92.80;;;;;;2057549;28;20098;-92
2021/10/22 00:34:39;;;;;;;1.95;0.65;;;7.40;92.80;;;;;;2049652;28;20062;-91
2021/10/22 00:35:41;;;;;;;3.00;0.82;;;7.40;92.80;;;;;;2062105;28;20061;-92
2021/10/22 00:36:41;;;;;;;3.00;0.80;;;7.40;92.80;;;;;;2057643;28;20051;-92
2021/10/22 00:37:42;;;;;;;2.80;0.68;;;7.40;92.70;;;;;;2057686;28;20086;-92
2021/10/22 00:38:43;;;;;;;1.83;0.60;;;7.40;92.70;;;;;;2065512;28;20042;-93
2021/10/22 00:39:43;;;;;;;2.97;0.60;;;7.40;92.70;;;;;;2073624;28;20038;-92
2021/10/22 00:40:45;;;;;;;3.10;0.70;;;7.40;92.70;;;;;;2073732;28;20121;-91
2021/10/22 00:41:47;;;;;;;2.80;0.60;;;7.50;92.70;;;;;;2073563;28;20360;-92
2021/10/22 00:42:48;;;;;;;2.63;0.60;;;7.40;92.70;;;;;;2050024;28;20091;-91
2021/10/22 00:43:49;;;;;;;2.22;0.70;;;7.40;92.70;;;;;;2049506;28;20048;-92
2021/10/22 00:44:51;;;;;;;4.93;0.85;;;7.40;92.70;;;;;;2057251;28;20035;-92
2021/10/22 00:45:52;;;;;;;2.72;0.65;;;7.40;92.70;;;;;;2050159;28;20023;-92
2021/10/22 00:46:54;;;;;;;2.95;0.60;;;7.40;92.70;;;;;;2073522;28;20076;-93
2021/10/22 00:47:55;;;;;;;3.13;0.88;;;7.40;92.70;;;;;;2065437;28;20038;-94
2021/10/22 00:48:57;;;;;;;3.58;0.70;;;7.40;92.70;;;;;;2049409;28;20042;-93
2021/10/22 00:49:57;;;;;;;3.65;0.60;;;7.40;92.70;;;;;;2057673;28;20031;-93
2021/10/22 00:51:00;;;;;;;3.53;0.60;;;7.40;92.70;;;;;;2065355;28;20037;-94
2021/10/22 00:52:01;;;;;;;2.97;0.70;;;7.30;92.70;;;;;;2049548;28;20035;-93
2021/10/22 00:53:02;;;;;;;2.60;0.60;;;7.30;92.70;;;;;;2065638;28;20030;-93
2021/10/22 00:54:08;;;;;;;2.13;0.70;;;7.30;92.80;;;;;;2065391;28;20092;-94
2021/10/22 00:55:12;;;;;;;3.97;0.60;;;7.30;92.80;;;;;;2065935;28;20500;-93
2021/10/22 00:56:13;;;;;;;2.05;0.50;;;7.30;92.80;;;;;;2065631;28;20460;-93
2021/10/22 00:57:14;;;;;;;2.50;0.60;;;7.30;92.80;;;;;;2057475;28;20031;-93
2021/10/22 00:58:14;;;;;;;3.20;0.68;;;7.30;92.80;;;;;;2058443;28;20431;-91
2021/10/22 00:59:16;;;;;;;3.00;0.60;;;7.30;92.80;;;;;;2050216;28;20092;-91
2021/10/22 01:00:17;;;;;;;3.40;0.60;;;7.20;92.80;;;;;;2057499;28;20035;-92
2021/10/22 01:01:18;;;;;;;4.53;0.60;;;7.20;92.80;;;;;;2065288;28;20030;-94
2021/10/22 01:02:19;;;;;;;2.55;0.70;;;7.20;92.80;;;;;;2057426;28;20059;-92
2021/10/22 01:03:19;;;;;;;3.00;0.60;;;7.20;92.80;;;;;;2057616;28;20612;-92
2021/10/22 01:04:20;;;;;;;1.45;0.60;;;7.20;92.90;;;;;;2065266;28;20042;-92
2021/10/22 01:05:21;;;;;;;3.08;0.60;;;7.20;92.90;;;;;;2065372;28;20046;-93
2021/10/22 01:06:22;;;;;;;2.55;0.50;;;7.20;92.90;;;;;;2053927;28;20038;-92
2021/10/22 01:07:23;;;;;;;1.75;0.60;;;7.20;92.90;;;;;;2041352;29;20032;-91
2021/10/22 01:08:24;;;;;;;2.85;0.45;;;7.20;92.90;;;;;;2049268;28;20474;-90
2021/10/22 01:09:25;;;;;;;2.80;0.70;;;7.20;92.90;;;;;;2037236;29;20060;-92
2021/10/22 01:10:26;;;;;;;3.45;0.70;;;7.20;92.90;;;;;;2041534;29;20139;-93
2021/10/22 01:11:26;;;;;;;3.75;0.85;;;7.20;92.90;;;;;;2041395;29;20050;-91
2021/10/22 01:12:27;;;;;;;4.07;0.80;;;7.10;92.90;;;;;;2050510;28;20039;-92
2021/10/22 01:13:29;;;;;;;2.53;0.90;;;7.20;92.90;;;;;;2051030;29;20040;-93
2021/10/22 01:14:30;;;;;;;3.28;0.63;;;7.10;92.80;;;;;;2043300;29;20047;-93
2021/10/22 01:15:31;;;;;;;2.75;0.70;;;7.10;92.80;;;;;;2035189;29;20126;-93
2021/10/22 01:16:32;;;;;;;4.35;0.70;;;7.10;92.90;;;;;;2035070;29;20511;-94
2021/10/22 01:17:39;;;;;;;3.67;0.70;;;7.10;92.90;;;;;;2050989;28;20414;-93
2021/10/22 01:18:40;;;;;;;4.57;0.80;;;7.10;92.90;;;;;;2058848;28;20034;-93
2021/10/22 01:19:41;;;;;;;3.35;0.70;;;7.10;92.90;;;;;;2058676;28;20127;-93
2021/10/22 01:20:42;;;;;;;3.90;0.90;;;7.10;92.90;;;;;;2058654;28;20487;-93
2021/10/22 01:21:47;;;;;;;2.47;0.60;;;7.10;92.90;;;;;;2050882;28;20116;-93
2021/10/22 01:22:50;;;;;;;1.92;0.55;;;7.10;92.90;;;;;;2051564;28;20393;-93
2021/10/22 01:23:51;;;;;;;3.05;0.73;;;7.10;92.90;;;;;;2059019;28;20074;-92
2021/10/22 01:24:52;;;;;;;3.28;0.70;;;7.10;92.90;;;;;;2058974;28;20035;-93
2021/10/22 01:25:52;;;;;;;3.53;0.80;;;7.00;93.00;;;;;;2042998;29;20135;-91
2021/10/22 01:26:53;;;;;;;2.60;0.82;;;7.00;92.90;;;;;;2027244;29;20054;-92
2021/10/22 01:27:55;;;;;;;4.70;0.60;;;7.00;92.90;;;;;;2043152;29;20043;-92
2021/10/22 01:28:59;;;;;;;2.65;0.70;;;7.00;92.90;;;;;;2035068;29;20518;-92
2021/10/22 01:29:59;;;;;;;3.80;0.95;;;7.00;92.90;;;;;;2028034;29;20534;-93
2021/10/22 01:31:01;;;;;;;3.60;0.75;;;7.00;92.90;;;;;;2027716;29;20040;-93
2021/10/22 01:32:02;;;;;;;2.78;0.80;;;7.00;92.90;;;;;;2035144;28;20500;-91
2021/10/22 01:33:05;;;;;;;3.92;0.70;;;7.00;92.90;;;;;;2042842;28;20138;-91
2021/10/22 01:34:06;;;;;;;2.05;0.47;;;7.00;92.90;;;;;;2051739;28;20505;-92
2021/10/22 01:35:09;;;;;;;2.65;0.70;;;7.00;92.90;;;;;;2058687;28;20054;-91
2021/10/22 01:36:10;;;;;;;3.15;0.70;;;7.00;92.90;;;;;;2035463;29;20040;-92
2021/10/22 01:37:11;;;;;;;3.65;0.60;;;6.90;92.90;;;;;;2034977;29;20470;-92
2021/10/22 01:38:17;;;;;;;2.60;0.65;;;6.90;92.90;;;;;;2035195;29;20064;-93
2021/10/22 01:39:17;;;;;;;4.40;0.98;;;7.00;93.00;;;;;;2051681;28;20093;-92
2021/10/22 01:40:18;;;;;;;5.85;0.95;;;7.00;93.00;;;;;;2035050;29;20072;-93
2021/10/22 01:41:20;;;;;;;2.00;0.77;;;6.90;92.90;;;;;;2035108;28;20043;-92
2021/10/22 01:42:21;;;;;;;2.60;0.70;;;6.90;92.90;;;;;;2059200;28;20038;-92
2021/10/22 01:43:26;;;;;;;3.00;0.77;;;6.90;92.90;;;;;;2064151;28;20066;-92
2021/10/22 01:44:27;;;;;;;2.63;0.70;;;6.90;93.00;;;;;;2059185;28;20503;-93
2021/10/22 01:45:28;;;;;;;2.33;0.70;;;6.90;93.00;;;;;;2050821;28;20043;-93
2021/10/22 01:46:29;;;;;;;4.50;0.82;;;6.90;93.00;;;;;;2050764;28;20078;-93
2021/10/22 01:47:30;;;;;;;5.97;0.85;;;6.90;92.90;;;;;;2058939;28;20035;-93
2021/10/22 01:48:30;;;;;;;4.30;0.90;;;6.90;92.90;;;;;;2042865;29;20071;-92
2021/10/22 01:49:31;;;;;;;3.20;0.70;;;6.80;92.90;;;;;;2027073;29;20041;-91
2021/10/22 01:50:32;;;;;;;2.15;0.80;;;6.90;93.00;;;;;;2042848;29;20043;-92
2021/10/22 01:51:32;;;;;;;3.25;0.68;;;6.90;93.00;;;;;;2042825;29;20055;-92
2021/10/22 01:52:33;;;;;;;4.22;0.93;;;6.90;93.00;;;;;;2042810;29;20450;-92
2021/10/22 01:53:34;;;;;;;5.22;1.00;;;6.90;93.00;;;;;;2042818;28;20028;-92
2021/10/22 01:54:35;;;;;;;2.67;0.80;;;6.80;93.00;;;;;;2058602;28;20444;-93
2021/10/22 01:55:36;;;;;;;4.85;0.90;;;6.80;93.00;;;;;;2066680;28;20481;-92
2021/10/22 01:56:36;;;;;;;3.95;0.70;;;6.80;93.00;;;;;;2066696;28;20046;-93
2021/10/22 01:57:37;;;;;;;6.20;0.90;;;6.80;93.00;;;;;;2066461;28;20038;-92
2021/10/22 01:58:38;;;;;;;2.85;0.80;;;6.80;93.00;;;;;;2049691;29;20122;-91
2021/10/22 01:59:39;;;;;;;5.40;1.23;;;6.80;93.10;;;;;;2042864;29;20079;-93
2021/10/22 02:00:40;;;;;;;4.18;0.93;;;6.80;93.00;;;;;;2058610;28;20059;-92
2021/10/22 02:01:40;;;;;;;5.10;1.00;;;6.80;93.00;;;;;;2058665;28;20118;-93
2021/10/22 02:02:41;;;;;;;2.92;0.73;;;6.80;93.00;;;;;;2058548;28;20070;-92
2021/10/22 02:03:42;;;;;;;3.45;0.70;;;6.80;93.10;;;;;;2042676;29;20171;-92
2021/10/22 02:04:43;;;;;;;3.47;0.95;;;6.70;93.00;;;;;;2035877;29;20044;-92
2021/10/22 02:05:43;;;;;;;3.42;1.23;;;6.70;93.00;;;;;;2050566;28;20071;-92
2021/10/22 02:06:44;;;;;;;2.80;0.60;;;6.80;93.10;;;;;;2050673;29;20047;-93
2021/10/22 02:07:45;;;;;;;3.45;0.70;;;6.80;93.10;;;;;;2050726;28;20485;-92
2021/10/22 02:08:45;;;;;;;3.58;0.60;;;6.70;93.00;;;;;;2051072;28;20043;-91
2021/10/22 02:09:46;;;;;;;2.70;0.80;;;6.70;93.00;;;;;;2050706;28;20039;-93
2021/10/22 02:10:47;;;;;;;3.22;0.80;;;6.70;93.10;;;;;;2058603;28;20050;-93
2021/10/22 02:11:47;;;;;;;2.63;0.70;;;6.70;93.10;;;;;;2042689;29;20506;-93
2021/10/22 02:12:48;;;;;;;3.42;0.90;;;6.70;93.00;;;;;;2050251;28;20039;-93
2021/10/22 02:13:49;;;;;;;4.57;0.80;;;6.70;93.00;;;;;;2057275;28;20038;-93
2021/10/22 02:14:50;;;;;;;5.05;0.88;;;6.70;93.00;;;;;;2058397;28;20069;-93
2021/10/22 02:15:50;;;;;;;3.45;0.93;;;6.70;93.00;;;;;;2066884;28;20123;-94
2021/10/22 02:16:51;;;;;;;3.03;0.80;;;6.70;93.00;;;;;;2058253;28;20053;-93
2021/10/22 02:17:52;;;;;;;3.42;0.70;;;6.70;93.00;;;;;;2058595;28;20041;-93
2021/10/22 02:18:53;;;;;;;2.80;0.70;;;6.70;93.30;;;;;;2042611;28;20454;-93
2021/10/22 02:19:54;;;;;;;3.03;0.82;;;6.70;93.00;;;;;;2050351;28;20042;-93
2021/10/22 02:20:54;;;;;;;2.95;0.93;;;6.70;93.00;;;;;;2058557;28;20038;-93
2021/10/22 02:21:56;;;;;;;5.18;0.93;;;6.70;93.00;;;;;;2066300;28;20027;-94
2021/10/22 02:22:56;;;;;;;3.00;0.88;;;6.70;93.00;;;;;;2066405;28;20066;-93
2021/10/22 02:23:57;;;;;;;3.67;0.80;;;6.70;93.00;;;;;;2066464;28;20039;-93
2021/10/22 02:24:58;;;;;;;4.00;0.88;;;6.70;93.00;;;;;;2058758;28;20084;-93
2021/10/22 02:25:59;;;;;;;2.70;0.75;;;6.70;93.10;;;;;;2050981;28;20130;-92
2021/10/22 02:27:00;;;;;;;4.45;1.05;;;6.70;93.00;;;;;;2050460;29;20059;-93
2021/10/22 02:28:00;;;;;;;3.55;0.75;;;6.70;93.10;;;;;;2034945;29;20040;-92
2021/10/22 02:29:02;;;;;;;2.58;0.75;;;6.60;93.00;;;;;;2034714;29;20047;-92
2021/10/22 02:30:04;;;;;;;4.18;0.80;;;6.60;93.00;;;;;;2042649;28;20039;-93
2021/10/22 02:31:05;;;;;;;3.28;0.80;;;6.60;93.00;;;;;;2058542;28;20505;-93
2021/10/22 02:32:06;;;;;;;2.83;0.85;;;6.60;93.00;;;;;;2058011;28;20034;-93
2021/10/22 02:33:07;;;;;;;3.60;0.88;;;6.60;93.00;;;;;;2058289;28;20414;-93
2021/10/22 02:34:08;;;;;;;4.65;0.90;;;6.60;93.00;;;;;;2050565;28;20055;-93
2021/10/22 02:35:09;;;;;;;3.17;0.60;;;6.60;93.00;;;;;;2058415;28;20047;-94
2021/10/22 02:36:10;;;;;;;4.38;0.77;;;6.60;93.00;;;;;;2058473;28;20027;-93
2021/10/22 02:37:12;;;;;;;2.03;0.70;;;6.60;93.00;;;;;;2042243;29;20044;-94
2021/10/22 02:38:13;;;;;;;2.40;0.70;;;6.60;93.00;;;;;;2042831;28;20534;-93
2021/10/22 02:39:13;;;;;;;2.13;0.73;;;6.60;93.00;;;;;;2042420;29;20048;-93
2021/10/22 02:40:16;;;;;;;2.00;0.65;;;6.60;93.00;;;;;;2050180;28;20047;-93
2021/10/22 02:41:16;;;;;;;3.35;1.08;;;6.60;93.00;;;;;;2050816;28;20091;-94
2021/10/22 02:42:17;;;;;;;4.57;0.80;;;6.60;93.00;;;;;;2058533;28;20477;-93
2021/10/22 02:43:18;;;;;;;4.20;0.90;;;6.60;93.00;;;;;;2050083;29;20130;-93
2021/10/22 02:44:18;;;;;;;3.58;0.80;;;6.60;93.00;;;;;;2042619;29;20036;-92
2021/10/22 02:45:19;;;;;;;2.08;0.55;;;6.60;93.00;;;;;;2042330;29;20040;-92
2021/10/22 02:46:20;;;;;;;2.63;0.60;;;6.50;93.00;;;;;;2042605;28;20039;-94
2021/10/22 02:47:21;;;;;;;3.10;0.73;;;6.60;93.20;;;;;;2049857;28;20040;-93
2021/10/22 02:48:22;;;;;;;3.47;1.02;;;6.60;92.90;;;;;;2058379;28;20117;-93
2021/10/22 02:49:22;;;;;;;3.13;0.90;;;6.50;92.90;;;;;;2067387;28;20030;-93
2021/10/22 02:50:23;;;;;;;4.88;1.00;;;6.50;92.90;;;;;;2067388;28;20048;-93
2021/10/22 02:51:24;;;;;;;5.40;0.80;;;6.50;92.90;;;;;;2075004;28;20092;-93
2021/10/22 02:52:25;;;;;;;4.28;1.17;;;6.50;92.90;;;;;;2058424;28;20049;-93
2021/10/22 02:53:25;;;;;;;3.90;0.82;;;6.50;92.90;;;;;;2050314;28;20035;-93
2021/10/22 02:54:26;;;;;;;3.17;0.68;;;6.50;92.90;;;;;;2066313;28;20038;-92
2021/10/22 02:55:28;;;;;;;2.38;0.82;;;6.50;92.90;;;;;;2066001;28;20086;-93
2021/10/22 02:56:28;;;;;;;3.33;0.80;;;6.50;92.90;;;;;;2066062;28;20065;-92
2021/10/22 02:57:29;;;;;;;2.90;0.70;;;6.50;92.80;;;;;;2066334;28;20063;-92
2021/10/22 02:58:30;;;;;;;2.65;0.77;;;6.50;92.80;;;;;;2066404;28;20121;-92
2021/10/22 02:59:31;;;;;;;3.67;0.90;;;6.50;92.80;;;;;;2066229;28;20416;-93
2021/10/22 03:00:31;;;;;;;4.75;0.90;;;6.50;93.10;;;;;;2066395;28;20038;-93
2021/10/22 03:01:32;;;;;;;2.95;0.70;;;6.50;92.80;;;;;;2058160;28;20038;-92
2021/10/22 03:02:33;;;;;;;2.88;0.70;;;6.50;92.80;;;;;;2066165;28;20042;-93
2021/10/22 03:03:34;;;;;;;3.63;0.80;;;6.50;92.80;;;;;;2057508;28;20042;-93
2021/10/22 03:04:34;;;;;;;3.88;0.82;;;6.50;92.80;;;;;;2042196;29;20039;-93
2021/10/22 03:05:35;;;;;;;5.15;0.98;;;6.50;92.80;;;;;;2050164;28;20584;-92
2021/10/22 03:06:36;;;;;;;4.75;0.70;;;6.50;92.80;;;;;;2065970;28;20034;-93
2021/10/22 03:07:38;;;;;;;5.40;0.90;;;6.50;92.80;;;;;;2065912;28;20062;-93
2021/10/22 03:08:39;;;;;;;1.95;0.60;;;6.50;92.80;;;;;;2057905;28;20135;-93
2021/10/22 03:09:39;;;;;;;3.50;1.08;;;6.50;92.80;;;;;;2055458;28;20513;-92
2021/10/22 03:10:40;;;;;;;4.78;0.80;;;6.50;92.80;;;;;;2057975;28;20063;-92
2021/10/22 03:11:41;;;;;;;2.13;0.75;;;6.50;92.80;;;;;;2057932;28;20085;-92
2021/10/22 03:12:41;;;;;;;2.75;0.70;;;6.50;92.80;;;;;;2066109;28;20065;-92
2021/10/22 03:13:42;;;;;;;3.70;0.82;;;6.50;92.80;;;;;;2049974;28;20039;-92
2021/10/22 03:14:43;;;;;;;2.40;0.80;;;6.50;92.80;;;;;;2041908;29;20042;-92
2021/10/22 03:15:43;;;;;;;4.05;0.82;;;6.50;92.80;;;;;;2049813;29;20126;-91
2021/10/22 03:16:44;;;;;;;2.83;0.80;;;6.40;92.80;;;;;;2057879;28;20039;-91
2021/10/22 03:17:45;;;;;;;4.57;1.00;;;6.50;92.80;;;;;;2049952;28;20049;-93
2021/10/22 03:18:47;;;;;;;4.15;0.80;;;6.50;92.80;;;;;;2066077;28;20081;-92
2021/10/22 03:19:48;;;;;;;3.70;1.00;;;6.40;92.80;;;;;;2065718;28;20038;-91
2021/10/22 03:20:49;;;;;;;4.88;0.88;;;6.40;92.70;;;;;;2061131;28;20042;-93
2021/10/22 03:21:50;;;;;;;4.13;0.80;;;6.40;92.70;;;;;;2057815;28;20047;-93
2021/10/22 03:22:51;;;;;;;3.10;1.02;;;6.50;92.80;;;;;;2041987;29;20494;-93
2021/10/22 03:23:55;;;;;;;3.83;1.00;;;6.40;92.70;;;;;;2034369;29;20045;-92
2021/10/22 03:24:56;;;;;;;3.65;0.88;;;6.40;92.70;;;;;;2043060;28;20101;-93
2021/10/22 03:25:56;;;;;;;3.28;0.80;;;6.40;92.70;;;;;;2042418;28;20036;-92
2021/10/22 03:26:57;;;;;;;3.30;0.70;;;6.40;93.00;;;;;;2057794;28;20073;-92
2021/10/22 03:28:04;;;;;;;4.07;0.80;;;6.40;92.70;;;;;;2057827;28;20134;-92
2021/10/22 03:29:04;;;;;;;3.38;0.85;;;6.40;92.70;;;;;;2050941;28;20035;-93
2021/10/22 03:30:06;;;;;;;4.70;1.30;;;6.40;92.70;;;;;;2050041;28;20119;-91
2021/10/22 03:31:06;;;;;;;6.00;1.00;;;6.40;92.70;;;;;;2050096;28;20485;-94
2021/10/22 03:32:08;;;;;;;3.47;0.98;;;6.40;92.70;;;;;;2059096;28;20063;-93
2021/10/22 03:33:08;;;;;;;4.03;0.90;;;6.40;92.70;;;;;;2051335;28;20115;-95
2021/10/22 03:34:09;;;;;;;4.80;1.00;;;6.40;92.70;;;;;;2066204;28;20034;-93
2021/10/22 03:35:10;;;;;;;4.57;1.02;;;6.40;92.70;;;;;;2058607;28;20039;-93
2021/10/22 03:36:10;;;;;;;4.43;0.95;;;6.40;92.70;;;;;;2051188;28;20363;-91
2021/10/22 03:37:12;;;;;;;4.55;1.10;;;6.40;92.70;;;;;;2060422;28;20070;-92
2021/10/22 03:38:13;;;;;;;5.05;1.10;;;6.40;92.70;;;;;;2058816;28;20042;-93
2021/10/22 03:39:13;;;;;;;3.17;1.10;;;6.40;92.70;;;;;;2050000;29;20074;-92
2021/10/22 03:40:14;;;;;;;4.70;1.10;;;6.40;92.70;;;;;;2042457;29;20028;-92
2021/10/22 03:41:15;;;;;;;4.03;1.05;;;6.40;92.70;;;;;;2057991;28;20045;-92
2021/10/22 03:42:15;;;;;;;5.38;1.02;;;6.40;92.70;;;;;;2058115;28;20039;-92
2021/10/22 03:43:16;;;;;;;4.10;0.90;;;6.40;92.70;;;;;;2057828;28;20086;-93
2021/10/22 03:44:17;;;;;;;3.67;1.13;;;6.40;92.70;;;;;;2049833;28;20122;-93
2021/10/22 03:45:17;;;;;;;3.67;1.20;;;6.40;92.60;;;;;;2057908;28;20034;-93
2021/10/22 03:46:18;;;;;;;3.80;0.90;;;6.40;92.60;;;;;;2049845;28;20043;-92
2021/10/22 03:47:19;;;;;;;2.60;0.90;;;6.40;92.60;;;;;;2057835;28;20045;-93
2021/10/22 03:48:20;;;;;;;5.10;1.20;;;6.40;92.60;;;;;;2041979;29;20036;-93
2021/10/22 03:49:21;;;;;;;3.10;1.10;;;6.40;92.60;;;;;;2041760;29;20130;-93
2021/10/22 03:50:25;;;;;;;3.72;1.00;;;6.40;92.60;;;;;;2050033;28;20501;-93
2021/10/22 03:51:25;;;;;;;3.97;1.10;;;6.40;92.60;;;;;;2057928;28;20470;-93
2021/10/22 03:52:26;;;;;;;6.25;1.10;;;6.40;92.60;;;;;;2065630;28;20078;-92
2021/10/22 03:53:27;;;;;;;5.82;1.33;;;6.40;92.60;;;;;;2049518;29;20042;-92
2021/10/22 03:54:28;;;;;;;5.35;1.08;;;6.40;92.60;;;;;;2049787;28;20066;-92
2021/10/22 03:55:29;;;;;;;4.15;1.05;;;6.40;92.60;;;;;;2041870;29;20086;-92
2021/10/22 03:56:29;;;;;;;5.35;1.42;;;6.40;92.60;;;;;;2049648;29;20134;-93
2021/10/22 03:57:30;;;;;;;4.95;1.27;;;6.30;92.60;;;;;;2057548;28;20177;-92
2021/10/22 03:58:31;;;;;;;5.30;1.48;;;6.30;92.50;;;;;;2041689;29;20387;-92
2021/10/22 03:59:32;;;;;;;4.82;1.27;;;6.40;92.60;;;;;;2049903;28;20086;-92
2021/10/22 04:00:32;;;;;;;4.97;1.17;;;6.40;92.50;;;;;;2041757;29;20043;-92
2021/10/22 04:01:33;;;;;;;5.88;1.30;;;6.40;92.50;;;;;;2041863;29;20044;-92
2021/10/22 04:02:34;;;;;;;5.45;1.40;;;6.30;92.50;;;;;;2056212;28;20047;-93
2021/10/22 04:03:35;;;;;;;4.25;1.33;;;6.40;92.50;;;;;;2065658;28;20030;-92
2021/10/22 04:04:36;;;;;;;4.70;1.20;;;6.40;92.50;;;;;;2057666;28;20050;-94
2021/10/22 04:05:37;;;;;;;5.60;1.42;;;6.30;92.50;;;;;;2049522;28;20046;-92
2021/10/22 04:06:37;;;;;;;4.72;1.27;;;6.40;92.50;;;;;;2041657;29;20441;-92
2021/10/22 04:07:38;;;;;;;6.38;1.48;;;6.40;92.50;;;;;;2049702;28;20035;-93
2021/10/22 04:08:40;;;;;;;5.68;1.38;;;6.40;92.50;;;;;;2057533;28;20043;-93
2021/10/22 04:09:41;;;;;;;3.95;1.35;;;6.40;92.50;;;;;;2053084;28;20086;-93
2021/10/22 04:10:43;;;;;;;4.90;1.42;;;6.30;92.50;;;;;;2057664;28;20042;-92
2021/10/22 04:11:44;;;;;;;5.55;1.30;;;6.40;92.50;;;;;;2057759;28;20063;-93
2021/10/22 04:12:44;;;;;;;5.15;1.77;;;6.40;92.50;;;;;;2049572;29;20124;-92
2021/10/22 04:13:45;;;;;;;5.10;1.40;;;6.40;92.50;;;;;;2049557;28;20039;-92
2021/10/22 04:14:46;;;;;;;3.95;1.45;;;6.40;92.50;;;;;;2057603;28;20067;-92
2021/10/22 04:15:48;;;;;;;4.00;1.38;;;6.40;92.50;;;;;;2049697;28;20405;-92
2021/10/22 04:16:49;;;;;;;4.65;1.52;;;6.40;92.50;;;;;;2041936;28;20082;-93
2021/10/22 04:17:50;;;;;;;5.20;1.38;;;6.40;92.40;;;;;;2034208;29;20060;-92
2021/10/22 04:18:50;;;;;;;5.53;1.30;;;6.40;92.40;;;;;;2049909;28;20051;-92
2021/10/22 04:19:51;;;;;;;7.20;1.70;;;6.40;92.40;;;;;;2049691;28;20066;-93
2021/10/22 04:20:52;;;;;;;3.35;1.20;;;6.50;92.40;;;;;;2042298;28;20050;-93
2021/10/22 04:21:54;;;;;;;4.38;1.50;;;6.50;92.40;;;;;;2040432;28;20249;-92
2021/10/22 04:22:54;;;;;;;5.05;1.40;;;6.50;92.40;;;;;;2043923;28;20062;-93
2021/10/22 04:23:55;;;;;;;5.05;1.30;;;6.50;92.40;;;;;;2048120;29;20071;-92
2021/10/22 04:24:56;;;;;;;5.30;1.50;;;6.50;92.40;;;;;;2065603;28;20035;-93
2021/10/22 04:25:57;;;;;;;6.57;1.83;;;6.50;92.40;;;;;;2065499;28;20038;-93
2021/10/22 04:26:57;;;;;;;5.63;1.50;;;6.50;92.40;;;;;;2058350;28;20011;-93
2021/10/22 04:27:58;;;;;;;4.60;1.50;;;6.50;92.40;;;;;;2065922;28;20030;-92
2021/10/22 04:28:59;;;;;;;3.20;1.38;;;6.50;92.40;;;;;;2057780;28;20016;-92
2021/10/22 04:30:00;;;;;;;5.30;1.40;;;6.50;92.40;;;;;;2057541;28;20039;-92
2021/10/22 04:31:01;;;;;;;5.65;1.48;;;6.50;92.40;;;;;;2058293;28;20027;-92
2021/10/22 04:32:02;;;;;;;6.28;1.48;;;6.60;92.40;;;;;;2073829;28;20053;-94
2021/10/22 04:33:03;;;;;;;5.60;1.35;;;6.50;92.30;;;;;;2073510;28;20061;-92
2021/10/22 04:34:04;;;;;;;4.40;1.45;;;6.50;92.30;;;;;;2065027;28;20054;-93
2021/10/22 04:35:05;;;;;;;4.75;1.55;;;6.60;92.30;;;;;;2051412;28;20102;-93
2021/10/22 04:36:09;;;;;;;3.72;1.50;;;6.60;92.30;;;;;;2058010;28;20130;-92
2021/10/22 04:37:23;;;;;;;6.03;1.50;;;6.60;92.30;;;;;;2050485;28;20498;-92
2021/10/22 04:40:44;;;;;;;5.20;1.63;;;6.60;92.20;;;;;;2074220;28;20034;-90
2021/10/22 04:41:45;;;;;;;4.97;1.50;;;6.70;92.30;;;;;;2060624;28;20390;-93
2021/10/22 04:42:48;;;;;;;5.80;1.50;;;6.60;92.20;;;;;;2057720;28;20039;-92
2021/10/22 04:43:50;;;;;;;5.10;1.50;;;6.70;92.20;;;;;;2065587;28;20034;-92
2021/10/22 04:44:51;;;;;;;6.57;1.77;;;6.70;92.20;;;;;;2074029;28;20034;-92
2021/10/22 04:45:53;;;;;;;6.00;1.40;;;6.70;92.20;;;;;;2057669;28;20038;-92
2021/10/22 04:46:54;;;;;;;4.55;1.50;;;6.70;92.20;;;;;;2056928;28;20056;-93
2021/10/22 04:47:54;;;;;;;3.08;1.20;;;6.70;92.20;;;;;;2057851;28;20069;-92
2021/10/22 04:48:55;;;;;;;5.00;1.63;;;6.70;92.20;;;;;;2065585;28;20608;-92
2021/10/22 04:49:56;;;;;;;7.57;1.67;;;6.80;92.20;;;;;;2057568;28;20045;-92
2021/10/22 04:50:56;;;;;;;4.57;1.83;;;6.80;92.20;;;;;;2073575;28;20034;-92
2021/10/22 04:51:57;;;;;;;6.35;1.80;;;6.80;92.20;;;;;;2057499;28;20038;-92
2021/10/22 04:52:58;;;;;;;5.20;2.03;;;6.80;92.20;;;;;;2041915;29;20039;-92
2021/10/22 04:53:59;;;;;;;4.95;1.95;;;6.80;92.20;;;;;;2068076;28;20066;-92
2021/10/22 04:55:00;;;;;;;7.10;1.80;;;6.80;92.20;;;;;;2072752;28;20098;-93
2021/10/22 04:56:02;;;;;;;6.30;1.60;;;6.80;92.20;;;;;;2056949;28;20108;-92
2021/10/22 04:57:02;;;;;;;5.63;1.80;;;6.80;92.20;;;;;;2057489;28;20043;-92
2021/10/22 04:58:03;;;;;;;5.28;1.73;;;6.80;92.20;;;;;;2056855;28;20315;-92
2021/10/22 04:59:04;;;;;;;6.28;1.52;;;6.90;92.20;;;;;;2065208;28;20058;-92
2021/10/22 05:00:06;;;;;;;6.07;1.70;;;6.80;92.20;;;;;;2057164;28;20047;-92
2021/10/22 05:01:07;;;;;;;6.93;1.75;;;6.80;92.20;;;;;;2073519;28;20026;-93
2021/10/22 05:02:08;;;;;;;7.32;1.70;;;6.80;92.20;;;;;;2069872;28;20030;-92
2021/10/22 05:03:09;;;;;;;5.80;1.80;;;6.90;92.20;;;;;;2057606;28;20505;-92
2021/10/22 05:04:10;;;;;;;6.40;1.77;;;6.90;92.20;;;;;;2065560;28;20045;-93
2021/10/22 05:05:11;;;;;;;6.25;1.70;;;6.90;92.20;;;;;;2073778;28;20034;-92
2021/10/22 05:06:12;;;;;;;6.55;1.58;;;6.90;92.20;;;;;;2057745;28;20060;-93
2021/10/22 05:07:12;;;;;;;5.57;1.63;;;6.90;92.20;;;;;;2056993;28;20047;-93
2021/10/22 05:08:14;;;;;;;5.15;1.92;;;6.90;92.20;;;;;;2049484;29;20553;-93
2021/10/22 05:09:15;;;;;;;6.88;1.80;;;6.90;92.20;;;;;;2043922;28;20146;-92
2021/10/22 05:10:15;;;;;;;7.78;1.83;;;6.90;92.20;;;;;;2049239;29;20083;-91
2021/10/22 05:11:16;;;;;;;7.07;1.73;;;6.90;92.20;;;;;;2049268;29;20143;-93
2021/10/22 05:12:17;;;;;;;6.72;1.80;;;7.00;92.20;;;;;;2057051;28;20496;-93
2021/10/22 05:13:18;;;;;;;5.97;1.60;;;7.00;92.20;;;;;;2065560;28;20587;-93
2021/10/22 05:14:19;;;;;;;6.38;1.85;;;7.00;92.20;;;;;;2065066;28;20062;-93
2021/10/22 05:15:19;;;;;;;6.15;1.60;;;7.00;92.20;;;;;;2049663;28;20062;-93
2021/10/22 05:16:20;;;;;;;7.43;1.98;;;7.00;92.20;;;;;;2041561;29;20039;-94
2021/10/22 05:17:22;;;;;;;6.97;1.77;;;7.10;92.20;;;;;;2041289;29;20418;-94
2021/10/22 05:18:23;;;;;;;5.53;1.52;;;7.10;92.20;;;;;;2057458;28;20477;-93
2021/10/22 05:19:23;;;;;;;6.75;1.67;;;7.10;92.20;;;;;;2041670;29;20043;-93
2021/10/22 05:20:24;;;;;;;4.70;1.50;;;7.10;92.20;;;;;;2041259;28;20475;-92
2021/10/22 05:21:25;;;;;;;5.80;1.70;;;7.10;92.20;;;;;;2073360;28;20488;-93
2021/10/22 05:22:26;;;;;;;6.25;1.70;;;7.10;92.20;;;;;;2057126;28;20045;-93
2021/10/22 05:23:26;;;;;;;7.28;2.05;;;7.10;92.30;;;;;;2057286;28;20059;-92
2021/10/22 05:24:27;;;;;;;5.72;1.65;;;7.10;92.30;;;;;;2065312;28;20034;-92